createdAt,value
2018-12-30T00:28:44.344Z,61.54
2018-12-30T00:31:44.995Z,61.59
2018-12-30T00:45:51.680Z,62.21
2018-12-30T00:48:53.087Z,62.21
2018-12-30T00:58:25.055Z,62.27
2018-12-30T01:01:25.182Z,62.52
2018-12-30T01:04:05.785Z,62.55
2018-12-30T01:09:53.542Z,62.32
2018-12-30T01:15:19.317Z,62.04
2018-12-30T01:30:21.197Z,63.08
2018-12-30T01:32:57.695Z,63.11
2018-12-30T01:35:34.347Z,62.88
2018-12-30T01:38:04.658Z,62.71
2018-12-30T01:46:57.488Z,63.55
2018-12-30T01:53:11.244Z,63.48
2018-12-30T01:56:04.733Z,63.85
2018-12-30T01:59:15.739Z,64.06
2018-12-30T02:07:44.044Z,64.41
2018-12-30T02:10:45.974Z,64.62
2018-12-30T02:31:19.608Z,64.26
2018-12-30T02:34:19.306Z,64.01
2018-12-30T02:42:58.918Z,63.28
2018-12-30T02:45:58.647Z,63.22
2018-12-30T02:48:26.276Z,63.50
2018-12-30T02:59:57.578Z,62.75
2018-12-30T03:06:04.792Z,61.86
2018-12-30T03:08:43.524Z,62.20
2018-12-30T03:11:36.803Z,62.07
2018-12-30T03:14:55.024Z,61.79
2018-12-30T03:20:29.243Z,61.93
2018-12-30T03:28:41.257Z,62.26
2018-12-30T03:31:42.939Z,62.42
2018-12-30T03:37:28.689Z,62.33
2018-12-30T03:40:39.937Z,62.52
2018-12-30T03:43:42.420Z,62.51
2018-12-30T03:46:29.269Z,62.54
2018-12-30T03:49:07.267Z,62.59
2018-12-30T03:51:56.814Z,62.61
2018-12-30T03:54:49.279Z,62.78
2018-12-30T03:57:18.077Z,62.52
2018-12-30T03:59:46.783Z,62.64
2018-12-30T04:05:47.115Z,62.28
2018-12-30T04:11:36.129Z,62.43
2018-12-30T04:20:01.612Z,62.48
2018-12-30T04:23:00.923Z,62.48
2018-12-30T04:25:52.190Z,62.56
2018-12-30T04:29:15.322Z,62.70
2018-12-30T04:30:58.846Z,62.62
2018-12-30T04:33:58.385Z,62.91
2018-12-30T04:36:27.331Z,63.03
2018-12-30T04:39:33.594Z,63.07
2018-12-30T04:42:16.015Z,63.10
2018-12-30T04:45:22.345Z,63.27
2018-12-30T04:48:01.509Z,63.32
2018-12-30T04:54:16.703Z,64.11
2018-12-30T04:56:53.311Z,63.81
2018-12-30T04:59:40.823Z,63.81
2018-12-30T05:02:43.072Z,63.85
2018-12-30T05:05:19.911Z,63.69
2018-12-30T05:08:19.454Z,63.46
2018-12-30T05:11:03.039Z,63.80
2018-12-30T05:20:51.512Z,64.09
2018-12-30T05:25:39.144Z,64.00
2018-12-30T05:31:29.830Z,63.68
2018-12-30T05:34:19.242Z,64.34
2018-12-30T05:38:20.265Z,64.45
2018-12-30T05:49:59.840Z,63.80
2018-12-30T05:55:43.834Z,63.87
2018-12-30T06:04:44.755Z,63.80
2018-12-30T06:13:54.005Z,64.47
2018-12-30T06:19:44.516Z,64.05
2018-12-30T06:31:30.831Z,64.90
2018-12-30T06:34:19.880Z,64.73
2018-12-30T06:36:57.855Z,64.61
2018-12-30T06:42:58.399Z,64.69
2018-12-30T06:48:45.951Z,65.21
2018-12-30T06:51:25.193Z,65.00
2018-12-30T06:53:54.411Z,64.94
2018-12-30T06:59:49.743Z,65.37
2018-12-30T07:02:29.482Z,65.60
2018-12-30T07:05:17.323Z,65.54
2018-12-30T07:07:57.982Z,65.77
2018-12-30T07:11:03.214Z,65.90
2018-12-30T07:13:32.967Z,65.90
2018-12-30T07:16:05.614Z,65.88
2018-12-30T07:18:35.654Z,65.95
2018-12-30T07:21:05.176Z,65.91
2018-12-30T07:23:35.550Z,65.93
2018-12-30T07:26:05.478Z,66.04
2018-12-30T07:28:41.784Z,66.16
2018-12-30T07:31:17.991Z,66.26
2018-12-30T07:33:49.334Z,66.26
2018-12-30T07:36:18.782Z,66.07
2018-12-30T07:38:47.904Z,66.22
2018-12-30T07:41:16.602Z,66.16
2018-12-30T07:43:46.465Z,66.01
2018-12-30T07:46:16.987Z,66.05
2018-12-30T07:48:45.607Z,66.60
2018-12-30T07:51:15.033Z,66.60
2018-12-30T07:53:44.102Z,66.28
2018-12-30T07:56:13.515Z,66.35
2018-12-30T07:58:42.767Z,66.29
2018-12-30T08:01:13.823Z,65.61
2018-12-30T08:03:43.458Z,65.61
2018-12-30T08:06:13.166Z,65.76
2018-12-30T08:08:42.732Z,65.95
2018-12-30T08:11:12.837Z,65.95
2018-12-30T08:13:42.422Z,65.82
2018-12-30T08:16:12.074Z,65.56
2018-12-30T08:21:53.550Z,65.01
2018-12-30T08:24:27.906Z,64.69
2018-12-30T08:26:59.584Z,64.67
2018-12-30T08:29:37.680Z,64.23
2018-12-30T08:32:11.364Z,63.79
2018-12-30T08:34:47.557Z,63.41
2018-12-30T08:37:17.020Z,63.21
2018-12-30T08:39:49.382Z,63.01
2018-12-30T08:42:18.139Z,63.01
2018-12-30T08:44:52.781Z,62.99
2018-12-30T08:47:48.439Z,63.09
2018-12-30T08:50:34.875Z,62.82
2018-12-30T08:53:09.418Z,62.91
2018-12-30T08:55:44.727Z,62.74
2018-12-30T08:58:19.327Z,62.42
2018-12-30T09:01:07.030Z,62.21
2018-12-30T09:03:42.662Z,61.99
2018-12-30T09:06:16.631Z,61.79
2018-12-30T09:09:04.689Z,61.67
2018-12-30T09:11:38.027Z,61.50
2018-12-30T09:14:07.198Z,61.63
2018-12-30T09:16:39.529Z,61.48
2018-12-30T09:19:15.514Z,61.24
2018-12-30T09:21:58.338Z,60.51
2018-12-30T09:24:34.760Z,60.53
2018-12-30T09:27:04.601Z,60.45
2018-12-30T09:29:42.632Z,60.38
2018-12-30T09:32:14.609Z,60.49
2018-12-30T09:34:45.366Z,60.32
2018-12-30T09:37:14.150Z,60.44
2018-12-30T09:39:57.896Z,60.50
2018-12-30T09:42:34.598Z,60.43
2018-12-30T09:45:06.240Z,60.17
2018-12-30T09:47:53.990Z,59.24
2018-12-30T09:50:43.099Z,59.25
2018-12-30T09:53:20.149Z,60.36
2018-12-30T09:55:51.658Z,60.36
2018-12-30T09:58:22.451Z,60.40
2018-12-30T10:01:01.024Z,60.70
2018-12-30T10:03:40.255Z,60.61
2018-12-30T10:06:10.221Z,60.39
2018-12-30T10:08:42.352Z,59.62
2018-12-30T10:11:24.334Z,60.19
2018-12-30T10:14:01.191Z,60.79
2018-12-30T10:16:36.393Z,60.97
2018-12-30T10:19:15.789Z,60.96
2018-12-30T10:21:59.512Z,60.96
2018-12-30T10:24:30.295Z,60.95
2018-12-30T10:27:08.406Z,61.15
2018-12-30T10:29:38.266Z,61.65
2018-12-30T10:32:08.116Z,61.47
2018-12-30T10:34:56.511Z,61.50
2018-12-30T10:37:25.566Z,61.58
2018-12-30T10:40:07.554Z,61.63
2018-12-30T10:42:47.886Z,61.29
2018-12-30T10:45:19.653Z,61.16
2018-12-30T10:47:50.415Z,61.41
2018-12-30T10:50:22.915Z,61.20
2018-12-30T10:53:08.049Z,61.36
2018-12-30T10:55:45.776Z,61.27
2018-12-30T10:58:13.871Z,61.40
2018-12-30T11:00:53.330Z,61.59
2018-12-30T11:03:31.221Z,61.03
2018-12-30T11:06:19.095Z,60.91
2018-12-30T11:09:08.212Z,60.99
2018-12-30T11:11:38.127Z,60.76
2018-12-30T11:14:08.311Z,60.93
2018-12-30T11:16:42.225Z,60.85
2018-12-30T11:19:22.357Z,60.25
2018-12-30T11:25:06.032Z,60.12
2018-12-30T11:27:35.181Z,60.03
2018-12-30T11:30:15.353Z,60.34
2018-12-30T11:32:49.333Z,60.37
2018-12-30T11:35:18.383Z,60.48
2018-12-30T11:38:01.436Z,60.50
2018-12-30T11:40:32.463Z,60.25
2018-12-30T11:43:02.362Z,60.44
2018-12-30T11:45:35.647Z,60.68
2018-12-30T11:48:08.290Z,60.66
2018-12-30T11:50:42.811Z,60.30
2018-12-30T11:53:17.335Z,60.39
2018-12-30T11:55:51.916Z,60.69
2018-12-30T11:58:35.106Z,60.62
2018-12-30T12:01:18.063Z,60.58
2018-12-30T12:03:55.162Z,60.93
2018-12-30T12:06:25.420Z,61.01
2018-12-30T12:08:59.335Z,60.62
2018-12-30T12:11:29.293Z,60.27
2018-12-30T12:14:11.829Z,59.91
2018-12-30T12:16:46.837Z,60.63
2018-12-30T12:19:17.349Z,60.86
2018-12-30T12:21:50.897Z,60.76
2018-12-30T12:24:24.281Z,60.76
2018-12-30T12:26:52.196Z,60.76
2018-12-30T12:29:21.577Z,60.68
2018-12-30T12:31:53.694Z,60.37
2018-12-30T12:34:26.218Z,60.75
2018-12-30T12:36:55.292Z,61.08
2018-12-30T12:39:29.247Z,60.61
2018-12-30T12:41:59.306Z,60.61
2018-12-30T12:44:34.464Z,60.58
2018-12-30T12:47:25.253Z,60.99
2018-12-30T12:49:57.089Z,61.03
2018-12-30T12:52:26.443Z,61.20
2018-12-30T12:54:58.397Z,61.17
2018-12-30T12:57:37.041Z,61.37
2018-12-30T13:00:20.277Z,61.37
2018-12-30T13:02:50.994Z,61.26
2018-12-30T13:05:20.283Z,61.53
2018-12-30T13:08:08.832Z,61.78
2018-12-30T13:10:44.071Z,61.82
2018-12-30T13:13:16.778Z,61.93
2018-12-30T13:15:49.484Z,62.38
2018-12-30T13:21:23.679Z,62.10
2018-12-30T13:24:08.616Z,61.84
2018-12-30T13:26:52.419Z,61.61
2018-12-30T13:29:24.691Z,61.70
2018-12-30T13:32:02.138Z,61.98
2018-12-30T13:34:44.333Z,62.16
2018-12-30T13:37:13.364Z,62.20
2018-12-30T13:39:49.010Z,62.18
2018-12-30T13:42:29.934Z,61.91
2018-12-30T13:44:59.393Z,61.58
2018-12-30T13:47:44.031Z,61.83
2018-12-30T13:50:17.876Z,62.46
2018-12-30T13:52:55.146Z,62.42
2018-12-30T13:55:35.963Z,62.64
2018-12-30T13:58:05.797Z,62.92
2018-12-30T14:00:36.090Z,63.14
2018-12-30T14:03:07.816Z,62.80
2018-12-30T14:05:59.848Z,62.79
2018-12-30T14:08:43.907Z,63.19
2018-12-30T14:11:25.690Z,63.06
2018-12-30T14:14:00.656Z,62.85
2018-12-30T14:16:30.538Z,62.77
2018-12-30T14:19:05.202Z,62.80
2018-12-30T14:21:34.111Z,63.14
2018-12-30T14:24:07.155Z,63.17
2018-12-30T14:26:41.367Z,63.16
2018-12-30T14:29:18.441Z,63.34
2018-12-30T14:31:54.268Z,63.12
2018-12-30T14:34:28.102Z,63.02
2018-12-30T14:37:02.267Z,62.75
2018-12-30T14:39:44.053Z,62.51
2018-12-30T14:42:16.361Z,62.77
2018-12-30T14:44:45.579Z,62.88
2018-12-30T14:47:14.999Z,62.63
2018-12-30T14:49:58.265Z,62.46
2018-12-30T14:52:27.756Z,62.40
2018-12-30T14:55:03.489Z,62.51
2018-12-30T14:57:36.689Z,62.62
2018-12-30T15:00:18.567Z,62.22
2018-12-30T15:02:58.031Z,62.32
2018-12-30T15:09:10.197Z,62.33
2018-12-30T15:11:45.586Z,62.10
2018-12-30T15:14:33.349Z,62.09
2018-12-30T15:16:59.808Z,61.75
2018-12-30T15:19:33.284Z,61.93
2018-12-30T15:22:12.036Z,61.78
2018-12-30T15:24:50.990Z,62.10
2018-12-30T15:27:18.413Z,61.80
2018-12-30T15:29:55.593Z,61.88
2018-12-30T15:32:36.617Z,61.71
2018-12-30T15:35:16.054Z,61.79
2018-12-30T15:37:51.067Z,61.80
2018-12-30T15:40:32.196Z,61.71
2018-12-30T15:43:04.533Z,61.76
2018-12-30T15:45:43.067Z,62.03
2018-12-30T15:48:13.443Z,62.12
2018-12-30T15:50:47.612Z,62.46
2018-12-30T15:53:20.326Z,62.87
2018-12-30T15:55:58.452Z,63.28
2018-12-30T15:58:34.764Z,63.29
2018-12-30T16:01:10.786Z,63.53
2018-12-30T16:03:50.995Z,63.83
2018-12-30T16:06:26.220Z,64.19
2018-12-30T16:09:11.201Z,64.44
2018-12-30T16:15:03.769Z,65.63
2018-12-30T16:17:39.374Z,65.53
2018-12-30T16:20:40.205Z,65.44
2018-12-30T16:23:09.625Z,66.53
2018-12-30T16:29:02.612Z,66.65
2018-12-30T16:31:47.246Z,66.71
2018-12-30T16:34:21.888Z,66.96
2018-12-30T16:36:59.639Z,66.66
2018-12-30T16:39:36.305Z,66.98
2018-12-30T16:42:22.367Z,66.88
2018-12-30T16:44:55.541Z,66.81
2018-12-30T16:47:30.219Z,67.16
2018-12-30T16:50:02.337Z,67.31
2018-12-30T16:52:38.248Z,67.69
2018-12-30T16:55:13.116Z,67.82
2018-12-30T16:57:50.789Z,67.88
2018-12-30T17:00:25.355Z,67.83
2018-12-30T17:02:58.694Z,68.30
2018-12-30T17:05:32.125Z,68.72
2018-12-30T17:08:04.428Z,69.57
2018-12-30T17:10:43.820Z,69.96
2018-12-30T17:13:32.535Z,70.12
2018-12-30T17:16:01.984Z,70.30
2018-12-30T17:18:34.327Z,70.46
2018-12-30T17:21:10.892Z,70.62
2018-12-30T17:25:59.072Z,70.89
2018-12-30T17:28:33.192Z,71.06
2018-12-30T17:37:30.912Z,71.16
2018-12-30T17:40:38.386Z,71.27
2018-12-30T17:46:18.459Z,71.92
2018-12-30T17:49:13.418Z,71.93
2018-12-30T17:51:48.473Z,71.66
2018-12-30T17:54:20.223Z,71.86
2018-12-30T17:56:50.505Z,71.82
2018-12-30T17:59:22.531Z,71.89
2018-12-30T18:02:13.723Z,71.89
2018-12-30T18:08:07.336Z,71.69
2018-12-30T18:10:44.842Z,72.23
2018-12-30T18:13:20.593Z,71.92
2018-12-30T18:19:19.821Z,72.68
2018-12-30T18:37:12.757Z,73.42
2018-12-30T18:40:03.223Z,73.58
2018-12-30T18:43:14.196Z,73.75
2018-12-30T18:55:44.137Z,74.21
2018-12-30T19:10:45.520Z,74.17
2018-12-30T19:22:21.999Z,74.70
2018-12-30T19:27:55.338Z,74.82
2018-12-30T19:33:53.282Z,74.34
2018-12-30T19:37:17.985Z,74.30
2018-12-30T19:39:39.682Z,74.13
2018-12-30T19:42:12.214Z,74.24
2018-12-30T19:48:13.694Z,74.01
2018-12-30T20:21:29.588Z,73.96
2018-12-30T20:24:38.188Z,73.90
2018-12-30T20:28:11.342Z,73.61
2018-12-30T20:33:41.257Z,73.99
2018-12-30T20:37:00.628Z,74.44
2018-12-30T20:43:01.297Z,74.78
2018-12-30T20:45:44.954Z,74.79
2018-12-30T20:49:05.815Z,74.40
2018-12-30T20:52:22.842Z,74.43
2018-12-30T20:55:05.510Z,74.31
2018-12-30T20:57:39.649Z,74.30
2018-12-30T21:09:28.470Z,74.21
2018-12-30T21:15:25.422Z,74.16
2018-12-30T21:18:32.133Z,74.02
2018-12-30T21:21:23.635Z,74.17
2018-12-30T21:24:16.713Z,74.47
2018-12-30T21:27:05.723Z,74.48
2018-12-30T21:30:15.660Z,74.67
2018-12-30T21:39:53.123Z,75.10
2018-12-30T21:49:21.208Z,75.94
2018-12-30T21:54:53.460Z,75.90
2018-12-30T21:57:43.866Z,75.65
2018-12-30T22:17:48.475Z,76.50
2018-12-30T22:26:59.766Z,76.46
2018-12-30T22:42:42.070Z,76.92
2018-12-30T22:48:17.464Z,77.07
2018-12-30T23:05:28.249Z,76.91
2018-12-30T23:32:30.147Z,76.63
2018-12-30T23:38:12.293Z,76.43
2018-12-30T23:47:10.046Z,75.44
2018-12-30T23:50:22.911Z,75.21
2018-12-30T23:53:19.818Z,74.89
2018-12-30T23:59:05.917Z,74.96
